createdAt,value
2019-01-30T00:01:59.756Z,58.70
2019-01-30T00:04:32.775Z,59.60
2019-01-30T00:07:06.123Z,59.70
2019-01-30T00:09:37.131Z,59.70
2019-01-30T00:12:09.877Z,59.80
2019-01-30T00:14:40.571Z,60.60
2019-01-30T00:17:10.960Z,61.20
2019-01-30T00:19:42.757Z,61.80
2019-01-30T00:22:13.292Z,62.60
2019-01-30T00:24:43.615Z,62.90
2019-01-30T00:27:15.554Z,62.80
2019-01-30T00:29:45.989Z,63.30
2019-01-30T00:32:16.527Z,65.10
2019-01-30T00:34:47.106Z,64.60
2019-01-30T00:37:17.543Z,65.50
2019-01-30T00:39:48.050Z,65.90
2019-01-30T00:42:18.611Z,66.70
2019-01-30T00:44:49.092Z,66.70
2019-01-30T00:47:19.738Z,66.90
2019-01-30T00:49:50.132Z,67.50
2019-01-30T00:52:20.701Z,67.70
2019-01-30T00:54:51.265Z,68.30
2019-01-30T00:57:21.909Z,68.30
2019-01-30T00:59:52.284Z,68.30
2019-01-30T01:02:22.817Z,68.90
2019-01-30T01:04:53.390Z,69.00
2019-01-30T01:07:24.101Z,69.00
2019-01-30T01:09:54.904Z,69.80
2019-01-30T01:12:26.595Z,70.50
2019-01-30T01:14:57.156Z,70.50
2019-01-30T01:17:27.736Z,70.90
2019-01-30T01:19:58.116Z,71.50
2019-01-30T01:22:28.643Z,72.70
2019-01-30T01:24:59.149Z,74.50
2019-01-30T01:27:29.461Z,74.30
2019-01-30T01:30:00.035Z,74.20
2019-01-30T01:32:30.576Z,73.70
2019-01-30T01:35:00.909Z,73.60
2019-01-30T01:37:31.699Z,74.30
2019-01-30T01:40:04.726Z,74.20
2019-01-30T01:42:35.230Z,74.50
2019-01-30T01:45:07.376Z,74.00
2019-01-30T01:47:42.987Z,74.00
2019-01-30T01:50:16.347Z,74.50
2019-01-30T01:52:47.015Z,74.60
2019-01-30T01:55:17.697Z,75.00
2019-01-30T01:57:52.549Z,76.20
2019-01-30T02:00:35.595Z,77.00
2019-01-30T02:03:02.801Z,77.00
2019-01-30T02:05:33.333Z,77.10
2019-01-30T02:08:03.718Z,77.10
2019-01-30T02:10:35.760Z,77.30
2019-01-30T02:13:07.023Z,77.60
2019-01-30T02:15:37.422Z,77.70
2019-01-30T02:18:08.512Z,77.80
2019-01-30T02:20:40.408Z,78.30
2019-01-30T02:23:11.776Z,78.50
2019-01-30T02:25:42.191Z,79.50
2019-01-30T02:28:12.581Z,79.90
2019-01-30T02:30:47.592Z,79.90
2019-01-30T02:33:14.842Z,80.90
2019-01-30T02:35:45.315Z,81.00
2019-01-30T02:38:15.669Z,80.90
2019-01-30T02:40:46.482Z,80.40
2019-01-30T02:43:16.859Z,80.70
2019-01-30T02:45:47.185Z,81.10
2019-01-30T02:48:17.587Z,81.30
2019-01-30T02:50:47.923Z,81.80
2019-01-30T02:53:22.109Z,81.10
2019-01-30T02:55:52.857Z,80.90
2019-01-30T02:58:23.181Z,82.20
2019-01-30T03:00:59.447Z,81.60
2019-01-30T03:03:25.416Z,81.60
2019-01-30T03:05:55.722Z,81.70
2019-01-30T03:08:26.108Z,81.10
2019-01-30T03:10:56.642Z,81.60
2019-01-30T03:13:27.237Z,80.90
2019-01-30T03:15:57.625Z,80.30
2019-01-30T03:18:28.014Z,79.80
2019-01-30T03:20:58.381Z,79.60
2019-01-30T03:23:28.776Z,79.50
2019-01-30T03:25:59.102Z,79.70
2019-01-30T03:28:29.445Z,79.30
2019-01-30T03:31:15.901Z,79.40
2019-01-30T03:33:31.655Z,79.30
2019-01-30T03:36:02.027Z,79.10
2019-01-30T03:38:32.463Z,79.00
2019-01-30T03:41:02.839Z,79.00
2019-01-30T03:43:33.175Z,78.90
2019-01-30T03:46:03.632Z,79.30
2019-01-30T03:48:33.985Z,79.70
2019-01-30T03:51:04.361Z,79.70
2019-01-30T03:53:34.755Z,79.50
2019-01-30T03:56:05.253Z,79.70
2019-01-30T03:58:35.578Z,80.40
2019-01-30T04:01:06.274Z,79.90
2019-01-30T04:03:36.613Z,80.20
2019-01-30T04:06:06.992Z,80.40
2019-01-30T04:08:37.378Z,80.50
2019-01-30T04:11:07.726Z,80.70
2019-01-30T04:13:38.088Z,80.00
2019-01-30T04:16:08.700Z,79.70
2019-01-30T04:18:38.993Z,79.40
2019-01-30T04:21:09.382Z,79.70
2019-01-30T04:23:39.769Z,79.80
2019-01-30T04:26:10.183Z,79.90
2019-01-30T04:28:40.492Z,79.50
2019-01-30T04:31:11.008Z,79.30
2019-01-30T04:33:41.325Z,79.60
2019-01-30T04:36:11.679Z,79.80
2019-01-30T04:38:42.073Z,79.50
2019-01-30T04:41:12.431Z,79.60
2019-01-30T04:43:42.787Z,79.60
2019-01-30T04:46:13.407Z,79.80
2019-01-30T04:48:43.767Z,80.20
2019-01-30T04:51:14.185Z,80.10
2019-01-30T04:53:44.613Z,80.10
2019-01-30T04:56:14.966Z,80.20
2019-01-30T04:58:45.327Z,80.80
2019-01-30T05:01:15.811Z,81.00
2019-01-30T05:03:46.154Z,81.50
2019-01-30T05:06:16.458Z,81.80
2019-01-30T05:08:47.267Z,82.00
2019-01-30T05:11:17.647Z,82.20
2019-01-30T05:13:48.448Z,82.20
2019-01-30T05:16:18.958Z,82.90
2019-01-30T05:18:49.367Z,83.00
2019-01-30T05:21:19.730Z,83.20
2019-01-30T05:23:50.141Z,83.80
2019-01-30T05:26:20.474Z,83.80
2019-01-30T05:28:50.829Z,84.00
2019-01-30T05:31:22.032Z,84.30
2019-01-30T05:33:52.525Z,84.50
2019-01-30T05:36:22.856Z,84.70
2019-01-30T05:38:53.250Z,84.80
2019-01-30T05:41:23.589Z,85.40
2019-01-30T05:43:53.896Z,85.40
2019-01-30T05:46:24.359Z,85.60
2019-01-30T05:48:54.679Z,86.20
2019-01-30T05:51:25.062Z,86.00
2019-01-30T05:53:55.496Z,86.20
2019-01-30T05:56:25.950Z,86.10
2019-01-30T05:58:56.262Z,86.60
2019-01-30T06:01:26.683Z,86.80
2019-01-30T06:03:57.044Z,87.50
2019-01-30T06:06:27.318Z,87.90
2019-01-30T06:08:59.312Z,88.10
2019-01-30T06:11:29.802Z,88.60
2019-01-30T06:14:00.145Z,89.10
2019-01-30T06:16:30.776Z,90.00
2019-01-30T06:19:01.160Z,89.60
2019-01-30T06:21:31.462Z,90.20
2019-01-30T06:24:01.901Z,90.30
2019-01-30T06:26:32.239Z,90.40
2019-01-30T06:29:02.546Z,90.80
2019-01-30T06:31:33.014Z,90.90
2019-01-30T06:34:03.348Z,91.30
2019-01-30T06:36:33.693Z,91.60
2019-01-30T06:39:05.987Z,91.70
2019-01-30T06:41:36.319Z,91.90
2019-01-30T06:44:06.634Z,91.90
2019-01-30T06:46:37.105Z,92.10
2019-01-30T06:49:07.450Z,92.20
2019-01-30T06:51:37.841Z,92.30
2019-01-30T06:54:08.228Z,92.50
2019-01-30T06:56:38.534Z,92.80
2019-01-30T06:59:08.888Z,93.00
2019-01-30T07:01:39.361Z,93.20
2019-01-30T07:04:09.683Z,93.60
2019-01-30T07:06:40.000Z,93.90
2019-01-30T07:09:12.026Z,93.90
2019-01-30T07:11:42.447Z,94.30
2019-01-30T07:14:12.768Z,94.50
2019-01-30T07:16:43.243Z,94.50
2019-01-30T07:19:13.685Z,94.50
2019-01-30T07:21:44.156Z,94.50
2019-01-30T07:24:14.575Z,94.80
2019-01-30T07:26:44.926Z,95.20
2019-01-30T07:29:15.238Z,95.50
2019-01-30T07:31:45.687Z,95.70
2019-01-30T07:34:16.057Z,95.90
2019-01-30T07:36:46.478Z,96.10
2019-01-30T07:39:16.792Z,96.40
2019-01-30T07:41:47.096Z,96.80
2019-01-30T07:44:17.488Z,97.40
2019-01-30T07:46:47.783Z,97.20
2019-01-30T07:49:18.167Z,97.50
2019-01-30T07:51:48.723Z,98.00
2019-01-30T07:54:19.054Z,98.70
2019-01-30T07:56:49.418Z,99.00
2019-01-30T07:59:25.335Z,99.00
2019-01-30T08:01:55.709Z,99.60
2019-01-30T08:04:26.077Z,99.80
2019-01-30T08:06:56.509Z,99.90
2019-01-30T08:09:26.807Z,99.90
2019-01-30T08:11:57.187Z,99.90
2019-01-30T08:14:27.638Z,99.90
2019-01-30T08:16:57.947Z,99.90
2019-01-30T08:19:28.287Z,99.90
2019-01-30T08:21:58.801Z,99.90
2019-01-30T08:24:29.465Z,99.90
2019-01-30T08:27:00.181Z,99.90
2019-01-30T08:29:30.789Z,99.90
2019-01-30T08:32:01.247Z,99.90
2019-01-30T08:34:31.627Z,99.90
2019-01-30T08:37:02.126Z,99.90
2019-01-30T08:39:32.452Z,99.90
2019-01-30T08:42:02.755Z,99.90
2019-01-30T08:44:33.190Z,99.90
2019-01-30T08:47:03.526Z,99.90
2019-01-30T08:49:33.864Z,99.90
2019-01-30T08:52:04.300Z,99.90
2019-01-30T08:54:34.607Z,99.90
2019-01-30T08:57:04.923Z,99.90
2019-01-30T08:59:35.341Z,99.90
2019-01-30T09:02:06.176Z,99.90
2019-01-30T09:04:36.509Z,99.90
2019-01-30T09:07:06.932Z,99.90
2019-01-30T09:09:37.263Z,99.90
2019-01-30T09:12:07.672Z,99.90
2019-01-30T09:14:38.042Z,99.90
2019-01-30T09:17:08.756Z,99.90
2019-01-30T09:19:39.256Z,99.90
2019-01-30T09:22:09.675Z,99.90
2019-01-30T09:24:40.576Z,99.90
2019-01-30T09:27:10.922Z,99.90
2019-01-30T09:29:41.290Z,99.90
2019-01-30T09:32:11.629Z,99.90
2019-01-30T09:34:41.989Z,99.90
2019-01-30T09:37:12.475Z,99.90
2019-01-30T09:39:42.804Z,99.90
2019-01-30T09:42:13.131Z,99.90
2019-01-30T09:44:43.483Z,99.90
2019-01-30T09:47:13.840Z,99.90
2019-01-30T09:49:44.130Z,99.90
2019-01-30T09:52:14.610Z,99.90
2019-01-30T09:54:45.008Z,99.90
2019-01-30T09:57:15.366Z,99.90
2019-01-30T09:59:45.759Z,99.90
2019-01-30T10:02:16.104Z,99.90
2019-01-30T10:04:46.400Z,99.90
2019-01-30T10:07:16.844Z,99.90
2019-01-30T10:09:47.154Z,99.90
2019-01-30T10:12:17.576Z,99.90
2019-01-30T10:14:47.955Z,99.90
2019-01-30T10:17:18.288Z,99.90
2019-01-30T10:19:48.626Z,99.90
2019-01-30T10:22:19.014Z,99.90
2019-01-30T10:24:50.555Z,99.90
2019-01-30T10:27:21.600Z,99.90
2019-01-30T10:29:51.944Z,99.90
2019-01-30T10:32:22.232Z,99.90
2019-01-30T10:34:52.618Z,99.90
2019-01-30T10:37:23.000Z,99.90
2019-01-30T10:39:53.357Z,99.90
2019-01-30T10:42:23.828Z,99.90
2019-01-30T10:44:54.192Z,99.90
2019-01-30T10:47:24.523Z,99.90
2019-01-30T10:49:54.958Z,99.90
2019-01-30T10:52:25.328Z,99.90
2019-01-30T10:54:55.669Z,99.90
2019-01-30T10:57:26.181Z,99.90
2019-01-30T10:59:56.480Z,99.90
2019-01-30T11:02:26.860Z,99.90
2019-01-30T11:04:57.258Z,99.90
2019-01-30T11:07:27.554Z,99.90
2019-01-30T11:09:58.435Z,99.90
2019-01-30T11:12:28.936Z,99.90
2019-01-30T11:14:59.235Z,99.90
2019-01-30T11:17:29.632Z,99.90
2019-01-30T11:20:02.675Z,99.90
2019-01-30T11:22:33.065Z,99.90
2019-01-30T11:25:05.611Z,99.90
2019-01-30T11:27:35.442Z,99.90
2019-01-30T11:30:08.512Z,99.90
2019-01-30T11:32:38.891Z,99.90
2019-01-30T11:35:10.157Z,99.90
2019-01-30T11:37:40.593Z,99.90
2019-01-30T11:40:22.184Z,99.90
2019-01-30T11:42:53.711Z,99.90
2019-01-30T11:45:26.672Z,99.90
2019-01-30T11:47:57.195Z,99.90
2019-01-30T11:50:27.785Z,99.90
2019-01-30T11:52:58.529Z,99.90
2019-01-30T11:55:29.038Z,99.90
2019-01-30T11:57:59.390Z,99.90
2019-01-30T12:00:35.955Z,99.90
2019-01-30T12:03:06.404Z,99.90
2019-01-30T12:05:36.782Z,99.90
2019-01-30T12:08:07.789Z,99.90
2019-01-30T12:10:38.156Z,99.90
2019-01-30T12:13:08.730Z,99.90
2019-01-30T12:15:39.184Z,99.90
2019-01-30T12:18:09.525Z,99.90
2019-01-30T12:20:44.630Z,99.90
2019-01-30T12:23:14.954Z,99.90
2019-01-30T12:25:45.485Z,99.90
2019-01-30T12:28:16.058Z,99.90
2019-01-30T12:30:46.431Z,99.90
2019-01-30T12:33:16.846Z,99.90
2019-01-30T12:35:47.190Z,99.90
2019-01-30T12:38:17.622Z,99.90
2019-01-30T12:40:48.070Z,99.90
2019-01-30T12:43:19.514Z,99.90
2019-01-30T12:45:51.346Z,99.90
2019-01-30T12:48:21.762Z,99.90
2019-01-30T12:50:52.354Z,99.90
2019-01-30T12:53:22.841Z,99.90
2019-01-30T12:55:53.213Z,99.90
2019-01-30T12:58:23.570Z,99.90
2019-01-30T13:00:54.077Z,99.90
2019-01-30T13:03:24.383Z,99.90
2019-01-30T13:05:55.653Z,99.90
2019-01-30T13:08:26.030Z,99.90
2019-01-30T13:10:56.380Z,99.90
2019-01-30T13:13:26.789Z,99.90
2019-01-30T13:15:57.263Z,99.90
2019-01-30T13:18:27.976Z,99.90
2019-01-30T13:21:03.023Z,99.90
2019-01-30T13:23:33.413Z,99.90
2019-01-30T13:26:03.767Z,99.90
2019-01-30T13:28:34.361Z,99.90
2019-01-30T13:31:04.733Z,99.90
2019-01-30T13:33:35.261Z,99.90
2019-01-30T13:36:07.352Z,99.90
2019-01-30T13:38:37.667Z,99.90
2019-01-30T13:41:08.246Z,99.90
2019-01-30T13:43:38.670Z,99.90
2019-01-30T13:46:09.142Z,99.90
2019-01-30T13:48:39.583Z,99.90
2019-01-30T13:51:11.308Z,99.90
2019-01-30T13:53:42.160Z,99.90
2019-01-30T13:56:12.721Z,99.90
2019-01-30T13:58:43.303Z,99.90
2019-01-30T14:01:17.545Z,99.90
2019-01-30T14:03:45.683Z,99.90
2019-01-30T14:06:16.231Z,99.90
2019-01-30T14:08:46.765Z,99.90
2019-01-30T14:11:17.189Z,99.90
2019-01-30T14:13:47.560Z,99.90
2019-01-30T14:16:17.908Z,99.90
2019-01-30T14:18:48.436Z,99.90
2019-01-30T14:21:18.930Z,99.90
2019-01-30T14:23:53.972Z,99.90
2019-01-30T14:26:27.268Z,99.90
2019-01-30T14:28:58.369Z,99.90
2019-01-30T14:31:29.924Z,99.90
2019-01-30T14:34:05.364Z,99.90
2019-01-30T14:36:35.720Z,99.90
2019-01-30T14:39:08.798Z,99.90
2019-01-30T14:41:40.648Z,99.90
2019-01-30T14:44:11.630Z,99.30
2019-01-30T14:46:42.130Z,99.60
2019-01-30T14:49:12.493Z,99.30
2019-01-30T14:51:46.347Z,99.90
2019-01-30T14:54:16.673Z,99.60
2019-01-30T14:56:53.588Z,99.20
2019-01-30T14:59:24.100Z,98.50
2019-01-30T15:01:56.041Z,99.30
2019-01-30T15:04:29.623Z,99.10
2019-01-30T15:07:00.349Z,99.10
2019-01-30T15:09:30.828Z,99.50
2019-01-30T15:12:01.371Z,99.40
2019-01-30T15:14:31.815Z,98.60
2019-01-30T15:17:05.342Z,97.70
2019-01-30T15:19:35.931Z,97.00
2019-01-30T15:22:06.543Z,97.40
2019-01-30T15:24:38.356Z,97.10
2019-01-30T15:27:08.838Z,97.90
2019-01-30T15:29:39.388Z,97.40
2019-01-30T15:32:10.149Z,97.40
2019-01-30T15:34:40.571Z,98.30
2019-01-30T15:37:10.941Z,98.10
2019-01-30T15:39:41.437Z,97.90
2019-01-30T15:42:11.829Z,97.30
2019-01-30T15:44:42.310Z,96.70
2019-01-30T15:47:12.970Z,97.90
2019-01-30T15:49:43.371Z,97.70
2019-01-30T15:52:13.778Z,97.20
2019-01-30T15:54:44.502Z,97.50
2019-01-30T15:57:14.965Z,97.30
2019-01-30T15:59:45.587Z,97.30
2019-01-30T16:02:16.184Z,96.80
2019-01-30T16:04:46.600Z,96.60
2019-01-30T16:07:16.983Z,96.50
2019-01-30T16:09:47.680Z,96.50
2019-01-30T16:12:18.202Z,96.40
2019-01-30T16:14:48.565Z,97.10
2019-01-30T16:17:18.993Z,96.60
2019-01-30T16:19:49.529Z,95.60
2019-01-30T16:22:19.977Z,95.20
2019-01-30T16:24:50.411Z,94.80
2019-01-30T16:27:43.695Z,94.20
2019-01-30T16:30:19.517Z,93.70
2019-01-30T16:32:50.045Z,92.60
2019-01-30T16:35:23.695Z,92.60
2019-01-30T16:37:54.088Z,92.60
2019-01-30T16:40:25.949Z,91.70
2019-01-30T16:42:56.535Z,90.80
2019-01-30T16:45:32.238Z,88.70
2019-01-30T16:48:02.733Z,87.60
2019-01-30T16:50:34.437Z,84.20
2019-01-30T16:53:09.450Z,84.90
2019-01-30T16:55:40.350Z,83.00
2019-01-30T16:58:11.061Z,80.80
2019-01-30T17:00:41.743Z,78.30
2019-01-30T17:03:13.086Z,77.60
2019-01-30T17:05:43.592Z,76.00
2019-01-30T17:08:14.168Z,75.50
2019-01-30T17:11:13.659Z,75.20
2019-01-30T17:13:44.023Z,76.40
2019-01-30T17:16:14.686Z,75.80
2019-01-30T17:18:45.315Z,75.90
2019-01-30T17:21:15.706Z,73.70
2019-01-30T17:23:48.513Z,71.90
2019-01-30T17:26:21.177Z,71.30
2019-01-30T17:28:51.706Z,70.10
2019-01-30T17:31:22.493Z,68.90
2019-01-30T17:33:53.040Z,68.40
2019-01-30T17:36:26.363Z,67.70
2019-01-30T17:38:56.925Z,69.10
2019-01-30T17:41:27.481Z,68.20
2019-01-30T17:43:58.016Z,69.10
2019-01-30T17:46:28.449Z,67.10
2019-01-30T17:48:58.868Z,65.20
2019-01-30T17:51:29.246Z,64.50
2019-01-30T17:53:59.818Z,67.30
2019-01-30T17:56:30.347Z,68.70
2019-01-30T17:59:03.909Z,68.50
2019-01-30T18:01:34.865Z,68.40
2019-01-30T18:04:05.866Z,66.70
2019-01-30T18:06:37.657Z,65.80
2019-01-30T18:09:09.405Z,65.60
2019-01-30T18:11:42.795Z,65.00
2019-01-30T18:14:13.173Z,66.00
2019-01-30T18:16:43.799Z,64.10
2019-01-30T18:19:18.456Z,63.90
2019-01-30T18:21:48.888Z,65.30
2019-01-30T18:24:19.262Z,63.40
2019-01-30T18:26:53.323Z,63.30
2019-01-30T18:29:28.258Z,64.10
2019-01-30T18:32:07.490Z,63.90
2019-01-30T18:34:37.779Z,63.40
2019-01-30T18:37:12.557Z,61.90
2019-01-30T18:39:43.103Z,62.60
2019-01-30T18:42:13.708Z,63.10
2019-01-30T18:44:44.410Z,62.20
2019-01-30T18:47:14.909Z,62.30
2019-01-30T18:49:47.151Z,64.20
2019-01-30T18:52:20.849Z,63.80
2019-01-30T18:54:51.864Z,62.40
2019-01-30T18:57:25.776Z,63.30
2019-01-30T18:59:59.152Z,62.40
2019-01-30T19:02:29.654Z,61.50
2019-01-30T19:05:09.098Z,62.20
2019-01-30T19:07:39.207Z,63.80
2019-01-30T19:10:12.164Z,63.80
2019-01-30T19:12:42.801Z,63.80
2019-01-30T19:15:16.043Z,63.20
2019-01-30T19:17:46.782Z,63.20
2019-01-30T19:20:28.902Z,62.90
2019-01-30T19:23:01.825Z,63.20
2019-01-30T19:25:35.347Z,62.10
2019-01-30T19:28:07.314Z,62.40
2019-01-30T19:30:38.036Z,61.00
2019-01-30T19:33:14.708Z,60.00
2019-01-30T19:35:48.162Z,59.80
2019-01-30T19:38:18.521Z,60.50
2019-01-30T19:40:50.078Z,63.10
2019-01-30T19:43:26.110Z,62.30
2019-01-30T19:45:56.695Z,61.80
2019-01-30T19:51:26.369Z,63.20
2019-01-30T19:54:00.158Z,61.80
2019-01-30T19:56:33.168Z,60.90
2019-01-30T19:59:03.814Z,60.30
2019-01-30T20:01:38.328Z,59.50
2019-01-30T20:04:10.790Z,62.60
2019-01-30T20:06:41.264Z,63.70
2019-01-30T20:09:19.504Z,63.60
2019-01-30T20:11:48.933Z,63.50
2019-01-30T20:14:20.805Z,62.30
2019-01-30T20:17:01.186Z,62.90
2019-01-30T20:19:44.404Z,63.20
2019-01-30T20:22:15.833Z,63.90
2019-01-30T20:24:46.960Z,64.30
2019-01-30T20:27:19.399Z,65.20
2019-01-30T20:29:49.766Z,64.10
2019-01-30T20:32:20.267Z,63.40
2019-01-30T20:34:50.805Z,63.40
2019-01-30T20:37:26.252Z,62.80
2019-01-30T20:39:55.008Z,62.90
2019-01-30T20:42:27.365Z,62.80
2019-01-30T20:45:00.594Z,62.50
2019-01-30T20:47:34.255Z,61.70
2019-01-30T20:50:06.387Z,62.20
2019-01-30T20:52:48.405Z,64.10
2019-01-30T20:55:22.795Z,65.00
2019-01-30T20:57:53.355Z,66.10
2019-01-30T21:00:37.803Z,66.10
2019-01-30T21:03:10.387Z,66.00
2019-01-30T21:05:41.148Z,66.40
2019-01-30T21:08:18.718Z,64.80
2019-01-30T21:10:49.376Z,63.80
2019-01-30T21:13:20.006Z,63.70
2019-01-30T21:15:50.558Z,65.10
2019-01-30T21:18:22.404Z,67.00
2019-01-30T21:21:02.890Z,66.80
2019-01-30T21:23:27.945Z,66.70
2019-01-30T21:26:02.060Z,67.60
2019-01-30T21:28:34.089Z,66.90
2019-01-30T21:31:04.684Z,68.00
2019-01-30T21:33:39.677Z,67.70
2019-01-30T21:36:26.976Z,67.10
2019-01-30T21:39:00.372Z,66.70
2019-01-30T21:41:30.937Z,66.40
2019-01-30T21:44:02.779Z,66.20
2019-01-30T21:46:49.080Z,65.40
2019-01-30T21:49:34.998Z,64.60
2019-01-30T21:55:08.916Z,67.80
2019-01-30T21:57:41.855Z,66.70
2019-01-30T22:00:28.305Z,68.10
2019-01-30T22:02:59.094Z,68.90
2019-01-30T22:05:32.600Z,69.20
2019-01-30T22:08:03.101Z,69.10
2019-01-30T22:10:36.489Z,69.90
2019-01-30T22:13:15.055Z,70.30
2019-01-30T22:15:45.276Z,70.80
2019-01-30T22:18:17.437Z,71.60
2019-01-30T22:20:48.933Z,70.20
2019-01-30T22:23:22.119Z,70.40
2019-01-30T22:25:52.549Z,70.00
2019-01-30T22:28:23.050Z,70.80
2019-01-30T22:30:53.624Z,70.40
2019-01-30T22:33:26.522Z,70.00
2019-01-30T22:35:59.175Z,69.90
2019-01-30T22:38:30.936Z,70.10
2019-01-30T22:41:01.362Z,71.30
2019-01-30T22:43:31.966Z,72.90
2019-01-30T22:46:06.678Z,72.10
2019-01-30T22:48:38.312Z,71.50
2019-01-30T22:51:08.829Z,71.00
2019-01-30T22:53:42.360Z,72.00
2019-01-30T22:56:13.696Z,74.80
2019-01-30T22:58:44.118Z,75.10
2019-01-30T23:01:26.071Z,75.00
2019-01-30T23:04:01.835Z,74.20
2019-01-30T23:06:46.871Z,73.20
2019-01-30T23:09:36.469Z,73.50
2019-01-30T23:12:34.427Z,74.10
2019-01-30T23:15:07.558Z,75.00
2019-01-30T23:17:46.565Z,76.50
2019-01-30T23:20:22.762Z,76.50
2019-01-30T23:23:12.938Z,76.70
2019-01-30T23:26:00.035Z,76.20
2019-01-30T23:28:38.854Z,75.70
2019-01-30T23:31:30.581Z,75.80
2019-01-30T23:34:03.792Z,76.00
2019-01-30T23:36:51.119Z,75.40
2019-01-30T23:39:41.182Z,76.30
2019-01-30T23:42:20.480Z,77.50
2019-01-30T23:45:09.820Z,77.60
2019-01-30T23:47:43.256Z,78.20
2019-01-30T23:50:23.908Z,78.00
2019-01-30T23:53:05.824Z,77.90
2019-01-30T23:55:47.885Z,79.40
2019-01-30T23:58:36.041Z,79.40
